HRHO2: North Canadian River

                                SHEF ID:       HRHO2     North Canadian River near Harrah
STATION TYPE:
Regulating: Stage = 15.00, Flow = 8563

STAGE RIV-FLOW WTR-TEMP DIS-OXY PH CONDUCT BAT-LOAD
ft cfs F mg/l su umho/cm volt
Ccp-Rev Ccp-Rev Ccp-Rev Ccp-Rev Ccp-Rev Ccp-Rev Ccp-Rev
(America/Chicago)
07/17 00:00 3.48 162 82.89 6.91 8.83 467 11.91
07/17 01:00 3.46 158 82.44 6.56 8.77 455 11.93
07/17 02:00 3.45 156 81.90 6.24 8.65 449 11.92
07/17 03:00 3.44 154 81.37 6.11 8.58 448 11.92
07/17 04:00 3.43 152 80.91 5.96 8.47 449 11.91
07/17 05:00 3.42 150 80.42 5.89 8.39 456 11.90
07/17 06:00 3.42 150 79.97 5.83 8.30 463 11.88
07/17 07:00 3.43 152 79.70 5.98 8.29 472 11.89
07/17 08:00 3.44 154 79.86 6.72 8.36 480 11.90
07/17 09:00 3.46 158 80.02 7.31 8.46 490 12.18
07/17 10:00 3.49 164 80.64 8.09 8.54 500 12.44
07/17 11:00 3.53 172 81.70 8.77 8.65 522 12.71
07/17 12:00 3.56 179 82.74 9.46 8.69 543 12.82
07/17 13:00 3.58 183 84.42 10.21 8.79 553 12.89
07/17 14:00 3.59 185 86.05 10.73 8.86 531 12.93
07/17 15:00 3.59 185 87.46 11.13 8.96 516 12.93
07/17 16:00 3.58 183 88.32 11.54 9.00 506 12.84
07/17 17:00 3.56 179 88.99 11.32 9.05 505 12.83
07/17 18:00 3.53 172 88.93 10.78 9.01 497 12.77
07/17 19:00 3.50 166 88.14 8.90 8.88 489 12.73
07/17 20:00 3.47 160 87.13 7.61 8.65 461 12.38
07/17 21:00 3.45 156 86.13 6.61 8.46 439 12.14
07/17 22:00 3.44 154 85.41 6.22 8.34 420 12.00
07/17 23:00 3.43 152 85.15 5.98 8.29 415 11.94
Data processed at Sat 18Jul2026 04:25 GMT

NOTICE: If you are parsing this page

Please convert to using our Data API. Starting early 2026 we will be migrating to: https://water.usace.army.mil with modern pages rendered in JavaScript. When this migration completes you will no longer be able to scrape this page! CWMSDataAPI (CDA)

Timeseries IDs (TSIDs)

TSIDs used from left to right in the data table
HARR.Stage.Inst.1Hour.0.Ccp-Rev
HARR.Flow.Inst.1Hour.0.Ccp-Rev
HARR.Temp-Water.Inst.1Hour.0.Ccp-Rev
HARR.Conc-DO.Inst.1Hour.0.Ccp-Rev
HARR.pH.Inst.1Hour.0.Ccp-Rev
HARR.Cond-Water.Inst.1Hour.0.Ccp-Rev
HARR.Volt-Battery Load.Inst.1Hour.0.Ccp-Rev

                            

All information presented herein is the property of the government of the United States of America and may be revised or deleted at any time without prior notice. Dissemination of this information without the expressed written consent of the Public Affairs Office, Tulsa District U.S. Army Corps of Engineers is strictly prohibited. These data are gathered electronically and, as presented, have NOT undergone any form of quality control. These data are NOT guaranteed to be valid or correct.